Time;durP1;ratioP1;P1;durP2;ratioP2;P2;SDS_P1;SDS_P2;PMS_P1;PMS_P2;Temp;Humidity;BMP_temperature;BMP_pressure;BME280_temperature;BME280_humidity;BME280_pressure;Samples;Min_cycle;Max_cycle;Signal;HPM_P1;HPM_P2
2021/10/19 00:00:59;;;;;;;19.77;12.10;;;9.00;99.90;;;;;;5010420;28;20229;-73
2021/10/19 00:03:26;;;;;;;22.60;11.83;;;9.00;99.90;;;;;;5008121;28;20216;-73
2021/10/19 00:05:52;;;;;;;21.03;11.50;;;9.10;99.90;;;;;;5027291;28;20459;-73
2021/10/19 00:08:18;;;;;;;21.10;12.27;;;9.10;99.90;;;;;;5002283;28;20456;-73
2021/10/19 00:10:43;;;;;;;19.30;10.90;;;9.10;99.90;;;;;;5009251;28;20466;-73
2021/10/19 00:13:10;;;;;;;18.63;11.83;;;9.10;99.90;;;;;;5026829;28;20246;-73
2021/10/19 00:15:35;;;;;;;18.00;11.40;;;9.10;99.90;;;;;;5025745;28;20216;-73
2021/10/19 00:18:01;;;;;;;17.80;10.53;;;9.10;99.90;;;;;;5024867;28;20514;-73
2021/10/19 00:20:27;;;;;;;19.00;11.40;;;9.10;99.90;;;;;;5007643;28;20232;-73
2021/10/19 00:22:52;;;;;;;18.50;12.03;;;9.00;99.90;;;;;;5010085;28;20227;-73
2021/10/19 00:25:18;;;;;;;17.37;11.17;;;9.00;99.90;;;;;;5007234;28;20220;-73
2021/10/19 00:27:45;;;;;;;21.43;12.73;;;9.00;99.90;;;;;;5026282;28;20299;-73
2021/10/19 00:30:12;;;;;;;18.70;10.90;;;9.00;99.90;;;;;;5010556;28;20223;-73
2021/10/19 00:32:41;;;;;;;20.47;11.97;;;9.00;99.90;;;;;;5008283;28;20860;-73
2021/10/19 00:35:08;;;;;;;17.40;10.90;;;9.00;99.90;;;;;;5026285;28;20460;-73
2021/10/19 00:37:34;;;;;;;18.10;11.47;;;9.00;99.90;;;;;;5025367;28;20990;-72
2021/10/19 00:40:01;;;;;;;21.13;12.30;;;9.00;99.90;;;;;;5009578;28;20459;-72
2021/10/19 00:42:27;;;;;;;19.27;12.10;;;9.00;99.90;;;;;;5024385;28;20461;-72
2021/10/19 00:44:53;;;;;;;20.40;12.10;;;9.00;99.90;;;;;;5026604;28;20479;-73
2021/10/19 00:47:22;;;;;;;22.70;12.67;;;8.90;99.90;;;;;;5008604;28;20546;-73
2021/10/19 00:49:50;;;;;;;19.43;11.90;;;8.90;99.90;;;;;;5026230;28;20212;-73
2021/10/19 00:52:17;;;;;;;21.30;12.33;;;9.00;99.90;;;;;;4998344;28;20988;-73
2021/10/19 00:54:44;;;;;;;19.53;11.50;;;9.00;99.90;;;;;;5008549;28;20470;-73
2021/10/19 00:57:10;;;;;;;22.90;12.20;;;9.00;99.90;;;;;;5029258;28;20459;-72
2021/10/19 00:59:43;;;;;;;17.77;10.80;;;9.00;99.90;;;;;;5028023;28;20465;-73
2021/10/19 01:02:09;;;;;;;21.70;12.00;;;9.00;99.90;;;;;;5010905;28;20992;-73
2021/10/19 01:04:35;;;;;;;23.40;12.67;;;9.00;99.90;;;;;;5011784;28;20485;-73
2021/10/19 01:07:01;;;;;;;21.30;12.10;;;9.00;99.90;;;;;;5013418;28;20228;-73
2021/10/19 01:09:26;;;;;;;19.67;11.70;;;9.00;99.90;;;;;;5010452;28;20270;-73
2021/10/19 01:11:53;;;;;;;26.37;14.57;;;9.00;99.90;;;;;;5012790;28;20891;-73
2021/10/19 01:14:18;;;;;;;23.70;12.30;;;9.00;99.90;;;;;;5011974;28;20220;-73
2021/10/19 01:16:44;;;;;;;22.53;10.80;;;9.00;99.90;;;;;;5029193;28;20470;-73
2021/10/19 01:19:10;;;;;;;23.43;13.17;;;8.90;99.90;;;;;;5012411;28;20235;-73
2021/10/19 01:21:35;;;;;;;21.53;12.20;;;8.90;99.90;;;;;;5026905;28;20211;-73
2021/10/19 01:24:01;;;;;;;21.90;13.03;;;8.90;99.90;;;;;;5009617;28;20280;-73
2021/10/19 01:26:26;;;;;;;20.33;11.33;;;8.90;99.90;;;;;;5027899;28;20312;-73
2021/10/19 01:28:52;;;;;;;21.90;12.77;;;8.90;99.90;;;;;;5029371;28;20281;-72
2021/10/19 01:31:18;;;;;;;25.50;12.87;;;8.90;99.90;;;;;;5028067;28;20228;-73
2021/10/19 01:33:43;;;;;;;20.77;11.70;;;8.90;99.90;;;;;;5012408;28;20220;-72
2021/10/19 01:36:12;;;;;;;22.57;12.13;;;8.90;99.90;;;;;;5029394;28;20227;-71
2021/10/19 01:38:38;;;;;;;22.63;11.30;;;8.90;99.90;;;;;;5011595;28;22436;-72
2021/10/19 01:41:04;;;;;;;20.67;11.10;;;8.90;99.90;;;;;;5046932;28;20470;-72
2021/10/19 01:43:31;;;;;;;18.10;11.60;;;8.90;99.90;;;;;;5044810;28;20463;-72
2021/10/19 01:45:58;;;;;;;20.00;11.67;;;8.90;99.90;;;;;;5029288;28;20493;-72
2021/10/19 01:48:29;;;;;;;25.73;12.13;;;8.90;99.90;;;;;;5010102;28;20462;-71
2021/10/19 01:50:56;;;;;;;19.87;12.33;;;8.90;99.90;;;;;;5009269;28;20459;-73
2021/10/19 01:53:22;;;;;;;22.97;11.23;;;8.90;99.90;;;;;;5008417;28;20805;-73
2021/10/19 01:55:49;;;;;;;20.40;11.37;;;8.90;99.90;;;;;;4995521;28;20530;-72
2021/10/19 01:58:18;;;;;;;20.23;12.00;;;8.90;99.90;;;;;;5029323;28;20462;-72
2021/10/19 02:00:44;;;;;;;19.63;11.50;;;9.00;99.90;;;;;;5015551;28;20464;-72
2021/10/19 02:03:10;;;;;;;16.50;11.73;;;9.00;99.90;;;;;;5006924;28;20827;-72
2021/10/19 02:05:36;;;;;;;20.40;12.00;;;9.00;99.90;;;;;;5049060;28;20418;-72
2021/10/19 02:08:03;;;;;;;22.57;11.10;;;9.00;99.90;;;;;;5015517;28;20222;-72
2021/10/19 02:10:34;;;;;;;23.60;12.13;;;9.00;99.90;;;;;;5022844;28;20450;-72
2021/10/19 02:13:01;;;;;;;24.00;12.47;;;9.00;99.90;;;;;;5032468;28;20469;-72
2021/10/19 02:15:27;;;;;;;15.63;9.87;;;8.90;99.90;;;;;;5014058;28;20446;-72
2021/10/19 02:17:54;;;;;;;17.80;11.37;;;8.90;99.90;;;;;;5032115;28;20530;-72
2021/10/19 02:20:21;;;;;;;23.17;12.30;;;9.00;99.90;;;;;;5014511;28;20512;-72
2021/10/19 02:22:47;;;;;;;21.80;12.07;;;8.90;99.90;;;;;;5015279;28;20456;-72
2021/10/19 02:25:13;;;;;;;18.93;10.73;;;8.90;99.90;;;;;;5014406;28;20475;-72
2021/10/19 02:27:38;;;;;;;19.57;12.57;;;8.90;99.90;;;;;;5012792;28;20219;-72
2021/10/19 02:30:06;;;;;;;21.40;11.40;;;8.90;99.90;;;;;;5014682;28;20234;-71
2021/10/19 02:32:32;;;;;;;22.53;11.30;;;8.90;99.90;;;;;;5030920;28;20235;-72
2021/10/19 02:34:57;;;;;;;17.77;10.33;;;8.90;99.90;;;;;;5015681;28;21014;-72
2021/10/19 02:37:23;;;;;;;20.13;12.47;;;8.90;99.90;;;;;;5013447;28;20234;-73
2021/10/19 02:39:49;;;;;;;25.70;14.60;;;8.90;99.90;;;;;;5015284;28;20227;-72
2021/10/19 02:42:14;;;;;;;20.63;12.80;;;9.00;99.90;;;;;;5032360;28;20310;-72
2021/10/19 02:44:40;;;;;;;21.77;13.40;;;9.00;99.90;;;;;;5029682;28;20224;-72
2021/10/19 02:47:06;;;;;;;20.23;11.23;;;9.00;99.90;;;;;;5049959;28;20220;-73
2021/10/19 02:49:31;;;;;;;19.97;11.67;;;9.00;99.90;;;;;;5030258;28;20228;-73
2021/10/19 02:51:57;;;;;;;17.83;11.20;;;9.00;99.90;;;;;;5032038;28;20223;-73
2021/10/19 02:54:23;;;;;;;20.57;12.83;;;9.00;99.90;;;;;;5014072;28;20223;-73
2021/10/19 02:56:48;;;;;;;19.57;11.57;;;9.00;99.90;;;;;;5015548;28;20219;-72
2021/10/19 02:59:14;;;;;;;22.10;12.73;;;9.00;99.90;;;;;;5014989;28;20226;-73
2021/10/19 03:01:40;;;;;;;19.23;11.67;;;9.00;99.90;;;;;;5018089;28;20223;-73
2021/10/19 03:04:06;;;;;;;22.40;12.33;;;9.00;99.90;;;;;;5033337;28;20231;-71
2021/10/19 03:06:31;;;;;;;18.13;12.23;;;9.00;99.90;;;;;;5030758;28;20485;-72
2021/10/19 03:08:57;;;;;;;20.30;11.93;;;9.00;99.90;;;;;;5013894;28;20231;-72
2021/10/19 03:11:24;;;;;;;22.60;13.07;;;9.00;99.90;;;;;;5012826;28;20220;-73
2021/10/19 03:13:50;;;;;;;21.20;12.67;;;9.00;99.90;;;;;;5014841;28;20574;-72
2021/10/19 03:16:16;;;;;;;18.90;13.10;;;9.00;99.90;;;;;;5015032;28;20500;-72
2021/10/19 03:18:42;;;;;;;19.30;13.50;;;9.00;99.90;;;;;;5029239;28;20454;-74
2021/10/19 03:21:08;;;;;;;24.87;13.17;;;9.00;99.90;;;;;;5014969;28;20480;-73
2021/10/19 03:23:34;;;;;;;16.97;11.77;;;9.00;99.90;;;;;;5028796;28;20557;-73
2021/10/19 03:25:59;;;;;;;18.47;11.60;;;9.00;99.90;;;;;;5031229;28;20224;-72
2021/10/19 03:28:25;;;;;;;20.27;12.33;;;9.00;99.90;;;;;;5011715;28;20316;-75
2021/10/19 03:30:51;;;;;;;23.03;13.10;;;9.00;99.90;;;;;;5030898;28;20219;-75
2021/10/19 03:33:16;;;;;;;19.07;11.13;;;9.00;99.90;;;;;;5030263;28;20281;-75
2021/10/19 03:35:42;;;;;;;21.63;11.70;;;9.00;99.90;;;;;;5009882;28;20678;-72
2021/10/19 03:38:08;;;;;;;17.03;10.97;;;9.00;99.90;;;;;;5011027;28;20602;-73
2021/10/19 03:40:33;;;;;;;22.70;11.63;;;9.10;99.90;;;;;;4992691;28;20221;-72
2021/10/19 03:42:59;;;;;;;18.30;11.70;;;9.10;99.90;;;;;;5011312;28;20639;-73
2021/10/19 03:45:25;;;;;;;16.43;11.33;;;9.10;99.90;;;;;;5009252;28;20730;-74
2021/10/19 03:47:50;;;;;;;21.80;12.00;;;9.00;99.90;;;;;;5014532;28;20235;-73
2021/10/19 03:50:16;;;;;;;20.90;13.13;;;9.10;99.90;;;;;;5013014;28;20263;-73
2021/10/19 03:52:42;;;;;;;20.20;13.10;;;9.10;99.90;;;;;;5029481;28;20211;-75
2021/10/19 03:55:08;;;;;;;19.07;13.17;;;9.00;99.90;;;;;;5029558;28;20599;-73
2021/10/19 03:57:35;;;;;;;21.60;12.97;;;9.00;99.90;;;;;;5029110;28;20224;-73
2021/10/19 04:00:02;;;;;;;20.67;12.27;;;9.10;99.90;;;;;;5009902;28;20984;-73
2021/10/19 04:02:37;;;;;;;19.83;12.03;;;9.10;99.90;;;;;;5041229;28;20895;-73
2021/10/19 04:05:03;;;;;;;20.17;12.40;;;9.10;99.90;;;;;;5029955;28;20562;-75
2021/10/19 04:07:28;;;;;;;18.93;11.17;;;9.10;99.90;;;;;;5027842;28;20245;-75
2021/10/19 04:09:54;;;;;;;16.70;11.37;;;9.10;99.90;;;;;;5013756;28;20234;-73
2021/10/19 04:12:20;;;;;;;19.87;13.00;;;9.10;99.90;;;;;;5028730;28;20246;-74
2021/10/19 04:14:45;;;;;;;27.97;14.50;;;9.10;99.90;;;;;;5010670;28;20224;-74
2021/10/19 04:17:11;;;;;;;22.33;12.37;;;9.10;99.90;;;;;;5027050;28;20658;-73
2021/10/19 04:19:37;;;;;;;20.80;11.00;;;9.10;99.90;;;;;;5008617;28;20745;-75
2021/10/19 04:22:02;;;;;;;20.37;12.87;;;9.10;99.90;;;;;;5025591;28;20709;-72
2021/10/19 04:24:28;;;;;;;20.20;12.53;;;9.10;99.90;;;;;;5046432;28;20658;-73
2021/10/19 04:26:54;;;;;;;20.27;12.53;;;9.10;99.90;;;;;;5029514;28;20223;-74
2021/10/19 04:29:19;;;;;;;22.80;12.90;;;9.10;99.90;;;;;;5027611;28;20227;-74
2021/10/19 04:31:45;;;;;;;18.33;10.80;;;9.10;99.90;;;;;;5013935;28;20239;-73
2021/10/19 04:34:10;;;;;;;17.47;11.17;;;9.10;99.90;;;;;;5010865;28;20220;-73
2021/10/19 04:36:36;;;;;;;19.23;11.70;;;9.10;99.90;;;;;;5012188;28;20610;-73
2021/10/19 04:39:02;;;;;;;20.17;12.10;;;9.10;99.90;;;;;;5029273;28;20224;-74
2021/10/19 04:41:28;;;;;;;18.40;11.47;;;9.10;99.90;;;;;;5028543;28;20606;-73
2021/10/19 04:43:54;;;;;;;19.80;11.67;;;9.10;99.90;;;;;;5030012;28;20224;-73
2021/10/19 04:46:20;;;;;;;17.50;11.70;;;9.20;99.90;;;;;;5011730;28;20513;-74
2021/10/19 04:48:46;;;;;;;19.93;11.97;;;9.20;99.90;;;;;;5030107;28;20709;-73
2021/10/19 04:51:11;;;;;;;17.80;11.00;;;9.10;99.90;;;;;;5028721;28;20224;-73
2021/10/19 04:53:37;;;;;;;17.10;11.77;;;9.20;99.90;;;;;;5045975;28;20735;-73
2021/10/19 04:56:06;;;;;;;16.53;10.60;;;9.10;99.90;;;;;;5013728;28;20361;-74
2021/10/19 04:58:32;;;;;;;16.57;10.47;;;9.20;99.90;;;;;;5010711;28;20446;-74
2021/10/19 05:00:58;;;;;;;22.00;13.53;;;9.10;99.90;;;;;;5012485;28;20470;-73
2021/10/19 05:03:23;;;;;;;18.80;11.13;;;9.20;99.90;;;;;;5027839;28;20498;-74
2021/10/19 05:05:50;;;;;;;19.70;12.23;;;9.20;99.90;;;;;;5029424;28;20226;-72
2021/10/19 05:08:16;;;;;;;16.47;10.67;;;9.20;99.90;;;;;;5039367;28;20685;-73
2021/10/19 05:10:44;;;;;;;17.93;11.07;;;9.20;99.90;;;;;;5011806;28;20447;-73
2021/10/19 05:13:11;;;;;;;18.10;12.00;;;9.20;99.90;;;;;;5030134;28;20307;-73
2021/10/19 05:15:37;;;;;;;20.27;12.10;;;9.20;99.90;;;;;;5045440;28;20459;-73
2021/10/19 05:18:02;;;;;;;19.90;10.97;;;9.20;99.90;;;;;;5046813;28;20462;-73
2021/10/19 05:20:28;;;;;;;22.80;12.70;;;9.20;99.90;;;;;;5026360;28;20222;-73
2021/10/19 05:22:54;;;;;;;16.10;11.00;;;9.20;99.90;;;;;;5009435;28;20331;-73
2021/10/19 05:25:19;;;;;;;16.70;10.43;;;9.20;99.90;;;;;;5026126;28;20251;-74
2021/10/19 05:27:45;;;;;;;17.87;11.20;;;9.20;99.90;;;;;;4993855;28;20216;-74
2021/10/19 05:30:12;;;;;;;20.53;12.17;;;9.20;99.90;;;;;;5012152;28;20698;-73
2021/10/19 05:32:38;;;;;;;16.87;10.87;;;9.20;99.90;;;;;;5028548;28;20635;-73
2021/10/19 05:35:05;;;;;;;17.33;11.17;;;9.20;99.90;;;;;;5015297;28;20454;-74
2021/10/19 05:37:31;;;;;;;17.37;9.90;;;9.20;99.90;;;;;;5046810;28;20251;-74
2021/10/19 05:39:56;;;;;;;17.27;10.53;;;9.20;99.90;;;;;;5029157;28;20512;-74
2021/10/19 05:42:23;;;;;;;16.53;10.50;;;9.20;99.90;;;;;;5029268;28;20478;-74
2021/10/19 05:44:48;;;;;;;18.03;10.40;;;9.20;99.90;;;;;;5030685;28;20303;-75
2021/10/19 05:47:14;;;;;;;13.37;8.70;;;9.20;99.90;;;;;;5014476;28;20526;-75
2021/10/19 05:49:40;;;;;;;14.10;8.83;;;9.20;99.90;;;;;;5029688;28;20220;-74
2021/10/19 05:52:06;;;;;;;14.73;10.03;;;9.20;99.90;;;;;;5015617;28;20223;-75
2021/10/19 05:54:32;;;;;;;16.03;10.50;;;9.30;99.90;;;;;;5031119;28;20318;-75
2021/10/19 05:56:57;;;;;;;15.80;10.77;;;9.20;99.90;;;;;;5048575;28;20647;-74
2021/10/19 05:59:23;;;;;;;12.67;9.90;;;9.30;99.90;;;;;;5013436;28;20474;-75
2021/10/19 06:01:49;;;;;;;14.60;10.33;;;9.30;99.90;;;;;;5031084;28;20253;-74
2021/10/19 06:04:14;;;;;;;13.63;10.30;;;9.30;99.90;;;;;;5011915;28;20220;-73
2021/10/19 06:06:40;;;;;;;15.77;10.50;;;9.30;99.90;;;;;;5044384;28;20228;-75
2021/10/19 06:09:06;;;;;;;14.53;9.30;;;9.30;99.90;;;;;;5014834;28;20220;-74
2021/10/19 06:11:32;;;;;;;16.30;10.07;;;9.30;99.90;;;;;;5013823;28;20212;-74
2021/10/19 06:13:58;;;;;;;14.37;10.87;;;9.30;99.90;;;;;;5014960;28;20273;-75
2021/10/19 06:16:23;;;;;;;15.47;10.23;;;9.30;99.90;;;;;;5029756;28;20236;-75
2021/10/19 06:18:49;;;;;;;15.23;10.70;;;9.30;99.90;;;;;;5031501;28;20254;-75
2021/10/19 06:21:16;;;;;;;16.47;10.57;;;9.30;99.90;;;;;;5012585;28;20247;-74
2021/10/19 06:23:41;;;;;;;13.17;10.47;;;9.30;99.90;;;;;;5029622;28;20235;-73
2021/10/19 06:26:07;;;;;;;13.13;9.10;;;9.30;99.90;;;;;;5027489;28;20461;-75
2021/10/19 06:28:33;;;;;;;11.10;8.80;;;9.30;99.90;;;;;;5024315;28;20220;-75
2021/10/19 06:30:59;;;;;;;10.03;7.80;;;9.30;99.90;;;;;;5031144;28;20305;-74
2021/10/19 06:33:25;;;;;;;13.50;10.30;;;9.30;99.90;;;;;;5025368;28;20290;-76
2021/10/19 06:35:50;;;;;;;11.77;10.10;;;9.30;99.90;;;;;;5025974;28;20580;-75
2021/10/19 06:38:17;;;;;;;16.20;11.10;;;9.30;99.90;;;;;;5011094;28;20240;-73
2021/10/19 06:40:42;;;;;;;18.13;12.50;;;9.30;99.90;;;;;;5009945;28;20234;-75
2021/10/19 06:43:09;;;;;;;16.73;10.83;;;9.30;99.90;;;;;;5011601;28;20534;-74
2021/10/19 06:45:35;;;;;;;14.13;10.13;;;9.30;99.90;;;;;;5009742;28;20278;-75
2021/10/19 06:48:00;;;;;;;19.23;11.30;;;9.30;99.90;;;;;;5027861;28;20746;-75
2021/10/19 06:50:26;;;;;;;13.37;10.10;;;9.30;99.90;;;;;;4993623;28;20315;-75
2021/10/19 06:52:52;;;;;;;11.10;8.97;;;9.30;99.90;;;;;;5011783;28;20248;-74
2021/10/19 06:55:22;;;;;;;13.53;9.77;;;9.30;99.90;;;;;;5011921;28;20546;-75
2021/10/19 06:57:48;;;;;;;19.03;10.30;;;9.30;99.90;;;;;;4994670;28;20299;-75
2021/10/19 07:00:15;;;;;;;11.27;8.50;;;9.30;99.90;;;;;;5025933;28;21051;-74
2021/10/19 07:02:41;;;;;;;12.30;9.30;;;9.40;99.90;;;;;;5046777;28;20455;-74
2021/10/19 07:05:08;;;;;;;12.67;9.20;;;9.40;99.90;;;;;;5014693;28;20532;-74
2021/10/19 07:07:34;;;;;;;16.80;12.33;;;9.40;99.90;;;;;;5028945;28;20453;-74
2021/10/19 07:10:00;;;;;;;17.60;12.17;;;9.30;99.90;;;;;;5030735;28;20473;-74
2021/10/19 07:12:27;;;;;;;21.87;13.93;;;9.40;99.90;;;;;;5029952;28;20463;-75
2021/10/19 07:14:53;;;;;;;22.83;14.13;;;9.40;99.90;;;;;;5031390;28;20580;-73
2021/10/19 07:17:19;;;;;;;15.67;10.97;;;9.30;99.90;;;;;;5029727;28;20541;-75
2021/10/19 07:19:46;;;;;;;15.63;9.63;;;9.40;99.90;;;;;;5029915;28;20231;-75
2021/10/19 07:22:13;;;;;;;15.60;10.50;;;9.30;99.90;;;;;;5011956;28;20239;-74
2021/10/19 07:24:38;;;;;;;15.20;9.27;;;9.40;99.90;;;;;;5029105;28;20471;-76
2021/10/19 07:27:04;;;;;;;11.70;8.90;;;9.30;99.90;;;;;;5013831;28;20465;-75
2021/10/19 07:29:30;;;;;;;11.03;7.97;;;9.40;99.90;;;;;;5011044;28;20246;-76
2021/10/19 07:31:56;;;;;;;10.07;7.80;;;9.40;99.90;;;;;;5029402;28;20252;-75
2021/10/19 07:34:22;;;;;;;9.10;7.47;;;9.40;99.90;;;;;;5028317;28;20215;-76
2021/10/19 07:36:50;;;;;;;8.80;6.77;;;9.40;99.90;;;;;;5008963;28;20452;-76
2021/10/19 07:39:16;;;;;;;12.30;7.30;;;9.40;99.90;;;;;;4993819;28;20467;-76
2021/10/19 07:41:42;;;;;;;9.87;6.13;;;9.40;99.90;;;;;;5008719;28;20454;-75
2021/10/19 07:44:07;;;;;;;9.10;6.07;;;9.40;99.90;;;;;;5010108;28;20242;-75
2021/10/19 07:46:34;;;;;;;9.30;6.90;;;9.40;99.90;;;;;;5046400;28;20223;-76
2021/10/19 07:49:00;;;;;;;13.13;7.47;;;9.40;99.90;;;;;;5028649;28;20466;-74
2021/10/19 07:51:26;;;;;;;12.10;7.63;;;9.40;99.90;;;;;;5011871;28;20458;-76
2021/10/19 07:53:52;;;;;;;10.97;6.60;;;9.40;99.90;;;;;;5030219;28;20223;-76
2021/10/19 07:56:20;;;;;;;7.87;6.50;;;9.40;99.90;;;;;;5013153;28;20228;-76
2021/10/19 07:58:49;;;;;;;6.23;5.40;;;9.40;99.90;;;;;;5029355;28;20246;-75
2021/10/19 08:01:15;;;;;;;8.03;6.57;;;9.50;99.90;;;;;;5029107;28;20849;-76
2021/10/19 08:03:41;;;;;;;8.23;6.23;;;9.40;99.90;;;;;;5028829;28;20470;-75
2021/10/19 08:06:07;;;;;;;10.53;7.20;;;9.50;99.90;;;;;;5029194;28;20478;-76
2021/10/19 08:08:34;;;;;;;14.67;9.20;;;9.50;99.90;;;;;;5027858;28;20979;-76
2021/10/19 08:11:00;;;;;;;14.03;9.97;;;9.50;99.90;;;;;;5028693;28;20240;-75
2021/10/19 08:13:26;;;;;;;7.43;6.63;;;9.50;99.90;;;;;;5027747;28;20458;-76
2021/10/19 08:15:52;;;;;;;8.43;5.70;;;9.50;99.90;;;;;;5013142;28;20477;-76
2021/10/19 08:18:18;;;;;;;7.00;4.83;;;9.50;99.90;;;;;;5028120;28;20489;-76
2021/10/19 08:20:44;;;;;;;6.80;5.27;;;9.50;99.90;;;;;;5012199;28;20463;-75
2021/10/19 08:23:10;;;;;;;6.70;5.60;;;9.50;99.90;;;;;;5028666;28;20224;-76
2021/10/19 08:25:38;;;;;;;8.90;5.60;;;9.50;99.90;;;;;;5008313;28;20521;-76
2021/10/19 08:28:04;;;;;;;7.27;5.67;;;9.50;99.90;;;;;;5028860;28;20490;-75
2021/10/19 08:30:30;;;;;;;7.00;5.70;;;9.50;99.90;;;;;;5007709;28;21011;-75
2021/10/19 08:32:56;;;;;;;6.60;4.93;;;9.50;99.90;;;;;;4993368;28;20549;-75
2021/10/19 08:35:23;;;;;;;4.07;3.67;;;9.60;99.90;;;;;;5007759;28;20221;-76
2021/10/19 08:37:49;;;;;;;4.20;3.80;;;9.60;99.90;;;;;;5040920;28;20497;-75
2021/10/19 08:40:16;;;;;;;4.57;4.17;;;9.60;99.90;;;;;;5042593;28;21004;-76
2021/10/19 08:42:47;;;;;;;6.60;4.60;;;9.60;99.90;;;;;;5027145;28;20490;-75
2021/10/19 08:45:16;;;;;;;5.17;4.20;;;9.60;99.90;;;;;;5029066;28;20477;-75
2021/10/19 08:47:43;;;;;;;5.27;3.93;;;9.60;99.90;;;;;;5011368;28;20500;-76
2021/10/19 08:50:10;;;;;;;7.00;5.00;;;9.60;99.90;;;;;;5008882;28;20460;-75
2021/10/19 08:52:36;;;;;;;7.77;6.57;;;9.60;99.90;;;;;;5045423;28;20463;-76
2021/10/19 08:55:02;;;;;;;6.67;4.50;;;9.60;99.90;;;;;;5029229;28;20473;-75
2021/10/19 08:57:28;;;;;;;6.47;5.03;;;9.70;99.90;;;;;;5027787;28;20263;-75
2021/10/19 08:59:55;;;;;;;20.83;7.80;;;9.70;99.90;;;;;;5012330;28;20493;-75
2021/10/19 09:02:34;;;;;;;8.20;6.67;;;9.70;99.90;;;;;;5010820;28;20241;-76
2021/10/19 09:05:00;;;;;;;9.80;6.83;;;9.70;99.90;;;;;;5045202;28;20569;-76
2021/10/19 09:07:27;;;;;;;7.30;5.80;;;9.70;99.90;;;;;;5010279;28;20537;-75
2021/10/19 09:09:53;;;;;;;8.60;6.50;;;9.70;99.90;;;;;;5016306;28;20235;-76
2021/10/19 09:12:23;;;;;;;7.53;5.70;;;9.70;99.90;;;;;;5031170;28;20512;-76
2021/10/19 09:14:48;;;;;;;7.50;5.77;;;9.80;99.90;;;;;;5033069;28;20223;-76
2021/10/19 09:17:14;;;;;;;7.60;5.50;;;9.70;99.90;;;;;;5051139;28;20519;-76
2021/10/19 09:19:44;;;;;;;5.27;4.03;;;9.80;99.90;;;;;;5031321;28;20358;-76
2021/10/19 09:22:11;;;;;;;4.90;3.87;;;9.80;99.90;;;;;;5029605;28;20227;-75
2021/10/19 09:24:43;;;;;;;4.90;3.67;;;9.80;99.90;;;;;;5012752;28;20474;-75
2021/10/19 09:27:10;;;;;;;6.40;4.20;;;9.80;99.90;;;;;;5014530;28;20549;-75
2021/10/19 09:29:40;;;;;;;4.20;3.50;;;9.80;99.90;;;;;;5028858;28;20463;-75
2021/10/19 09:32:07;;;;;;;5.57;4.57;;;9.80;99.90;;;;;;5022194;28;21017;-74
2021/10/19 09:34:36;;;;;;;4.83;4.33;;;9.90;99.90;;;;;;5029811;28;20469;-75
2021/10/19 09:37:03;;;;;;;7.00;4.10;;;9.90;99.90;;;;;;5015849;28;20516;-75
2021/10/19 09:39:41;;;;;;;7.57;4.40;;;9.90;99.90;;;;;;5000315;28;20481;-75
2021/10/19 09:42:10;;;;;;;5.17;4.67;;;10.00;99.90;;;;;;5011852;28;20957;-76
2021/10/19 09:44:37;;;;;;;6.23;4.53;;;9.90;99.90;;;;;;5017862;28;20477;-76
2021/10/19 09:47:03;;;;;;;5.43;4.70;;;10.00;99.90;;;;;;5008900;28;21005;-75
2021/10/19 09:49:30;;;;;;;5.23;3.93;;;10.00;99.90;;;;;;5011059;28;20515;-75
2021/10/19 09:51:58;;;;;;;5.93;4.73;;;10.00;99.90;;;;;;5029778;28;20553;-75
2021/10/19 09:54:28;;;;;;;5.67;4.27;;;10.00;99.90;;;;;;5029301;28;20524;-76
2021/10/19 09:56:57;;;;;;;6.80;4.90;;;10.00;99.90;;;;;;5031330;28;20890;-75
2021/10/19 09:59:23;;;;;;;6.13;4.37;;;10.10;99.90;;;;;;5029779;28;20552;-74
2021/10/19 10:01:50;;;;;;;8.77;5.37;;;10.10;99.90;;;;;;5031093;28;20537;-75
2021/10/19 10:04:17;;;;;;;7.73;5.20;;;10.10;99.90;;;;;;5013553;28;20479;-76
2021/10/19 10:06:43;;;;;;;7.10;5.63;;;10.10;99.90;;;;;;5012298;28;20547;-76
2021/10/19 10:09:09;;;;;;;7.07;5.90;;;10.10;99.90;;;;;;5029321;28;20967;-76
2021/10/19 10:11:40;;;;;;;7.13;5.73;;;10.20;99.90;;;;;;5029207;28;20564;-75
2021/10/19 10:14:07;;;;;;;6.97;5.20;;;10.20;99.90;;;;;;5013553;28;20228;-75
2021/10/19 10:16:44;;;;;;;7.00;5.13;;;10.20;99.90;;;;;;5028395;28;20572;-77
2021/10/19 10:19:20;;;;;;;5.50;4.33;;;10.30;99.90;;;;;;5028605;28;20473;-75
2021/10/19 10:21:51;;;;;;;6.20;4.53;;;10.30;99.90;;;;;;5025044;28;20541;-76
2021/10/19 10:24:33;;;;;;;5.33;4.57;;;10.30;99.90;;;;;;5030013;28;20478;-75
2021/10/19 10:27:06;;;;;;;4.93;4.10;;;10.40;99.90;;;;;;5029444;28;20462;-75
2021/10/19 10:29:43;;;;;;;6.13;4.00;;;10.40;99.90;;;;;;5011054;28;20872;-75
2021/10/19 10:32:30;;;;;;;5.07;3.30;;;10.40;99.90;;;;;;5014012;28;20469;-76
2021/10/19 10:34:59;;;;;;;5.37;3.90;;;10.50;99.90;;;;;;5013019;28;20520;-77
2021/10/19 10:37:40;;;;;;;4.33;3.77;;;10.50;99.90;;;;;;5009316;28;20529;-75
2021/10/19 10:40:08;;;;;;;3.90;3.50;;;10.50;99.90;;;;;;5009963;28;20463;-75
2021/10/19 10:42:35;;;;;;;3.57;3.27;;;10.50;99.90;;;;;;5008709;28;20505;-77
2021/10/19 10:45:01;;;;;;;4.30;3.40;;;10.60;99.90;;;;;;5011224;28;20463;-76
2021/10/19 10:47:28;;;;;;;3.20;2.77;;;10.60;99.90;;;;;;5020979;28;20455;-76
2021/10/19 10:49:54;;;;;;;3.60;3.30;;;10.60;99.90;;;;;;5029402;28;20972;-75
2021/10/19 10:52:20;;;;;;;3.67;3.30;;;10.60;99.90;;;;;;5027521;28;20465;-76
2021/10/19 10:54:55;;;;;;;5.97;3.47;;;10.60;99.90;;;;;;5030000;28;20823;-75
2021/10/19 10:57:21;;;;;;;5.20;4.10;;;10.70;99.90;;;;;;5027467;28;20352;-75
2021/10/19 10:59:56;;;;;;;5.20;4.10;;;10.70;99.90;;;;;;5029351;28;20560;-76
2021/10/19 11:02:26;;;;;;;5.53;4.00;;;10.70;99.90;;;;;;5028755;28;20219;-76
2021/10/19 11:04:55;;;;;;;5.37;4.73;;;10.70;99.90;;;;;;5009667;28;20482;-76
2021/10/19 11:07:29;;;;;;;4.60;3.97;;;10.80;99.90;;;;;;5026805;28;20505;-75
2021/10/19 11:09:55;;;;;;;6.33;3.60;;;10.80;99.90;;;;;;5047528;28;20473;-75
2021/10/19 11:12:21;;;;;;;7.07;3.97;;;10.80;99.90;;;;;;5011374;28;20459;-76
2021/10/19 11:14:47;;;;;;;4.93;4.20;;;10.80;99.90;;;;;;5029134;28;20458;-74
2021/10/19 11:17:17;;;;;;;5.30;4.77;;;10.90;99.90;;;;;;5047131;28;20313;-73
2021/10/19 11:19:44;;;;;;;6.00;4.50;;;10.90;99.90;;;;;;5027497;28;20473;-75
2021/10/19 11:22:10;;;;;;;6.90;5.47;;;10.90;99.90;;;;;;5029722;28;20554;-74
2021/10/19 11:24:36;;;;;;;8.00;5.80;;;11.00;99.90;;;;;;5010250;28;20486;-74
2021/10/19 11:27:04;;;;;;;9.77;5.87;;;11.00;99.90;;;;;;5012716;28;20467;-74
2021/10/19 11:29:39;;;;;;;5.90;4.37;;;11.00;99.90;;;;;;5042955;28;20474;-75
2021/10/19 11:32:06;;;;;;;6.40;4.97;;;11.00;99.90;;;;;;5012709;28;20466;-73
2021/10/19 11:34:32;;;;;;;6.63;4.87;;;11.00;99.90;;;;;;5009100;28;20454;-74
2021/10/19 11:36:58;;;;;;;6.70;4.60;;;11.10;99.90;;;;;;5009156;28;20465;-77
2021/10/19 11:39:24;;;;;;;6.90;4.27;;;11.10;99.90;;;;;;5025258;28;20228;-75
2021/10/19 11:41:57;;;;;;;7.27;5.70;;;11.20;99.90;;;;;;4996078;28;20224;-77
2021/10/19 11:44:32;;;;;;;10.17;6.40;;;11.20;99.90;;;;;;5010747;28;20670;-77
2021/10/19 11:47:02;;;;;;;6.43;5.53;;;11.30;99.90;;;;;;5029001;28;20520;-74
2021/10/19 11:49:33;;;;;;;9.97;6.03;;;11.30;99.90;;;;;;5026809;28;20458;-76
2021/10/19 11:51:59;;;;;;;8.27;6.30;;;11.30;99.90;;;;;;5027975;28;20546;-76
2021/10/19 11:54:29;;;;;;;7.77;5.50;;;11.40;99.90;;;;;;5045034;28;20476;-75
2021/10/19 11:57:03;;;;;;;5.80;5.00;;;11.40;99.90;;;;;;5011799;28;20459;-75
2021/10/19 11:59:43;;;;;;;7.40;5.77;;;11.40;99.90;;;;;;5001445;28;20468;-75
2021/10/19 12:02:09;;;;;;;10.63;5.93;;;11.40;99.90;;;;;;5028886;28;20535;-76
2021/10/19 12:04:45;;;;;;;8.00;6.07;;;11.40;99.90;;;;;;5010614;28;20565;-75
2021/10/19 12:07:13;;;;;;;8.73;5.87;;;11.50;99.90;;;;;;5008992;28;20464;-74
2021/10/19 12:09:41;;;;;;;8.17;5.80;;;11.50;99.90;;;;;;5020352;28;20878;-75
2021/10/19 12:12:07;;;;;;;10.93;6.57;;;11.50;99.90;;;;;;5012019;28;20462;-76
2021/10/19 12:14:41;;;;;;;6.73;5.97;;;11.60;99.90;;;;;;5010705;28;20490;-75
2021/10/19 12:17:07;;;;;;;9.97;6.63;;;11.60;99.90;;;;;;5009670;28;20469;-76
2021/10/19 12:19:36;;;;;;;12.77;7.50;;;11.60;99.90;;;;;;5043772;28;20466;-75
2021/10/19 12:22:09;;;;;;;14.53;8.77;;;11.60;99.90;;;;;;5028814;28;20516;-76
2021/10/19 12:24:36;;;;;;;9.90;6.53;;;11.70;99.90;;;;;;5028344;28;20488;-76
2021/10/19 12:27:05;;;;;;;10.43;7.90;;;11.70;99.90;;;;;;5029852;28;20902;-76
2021/10/19 12:29:33;;;;;;;9.40;6.83;;;11.70;99.90;;;;;;5027117;28;20458;-77
2021/10/19 12:32:00;;;;;;;11.20;7.60;;;11.80;99.90;;;;;;5029549;28;20459;-75
2021/10/19 12:34:27;;;;;;;10.50;7.80;;;11.80;99.90;;;;;;5008377;28;20524;-75
2021/10/19 12:36:54;;;;;;;13.83;8.10;;;11.80;99.90;;;;;;5007091;28;22149;-75
2021/10/19 12:39:20;;;;;;;12.67;9.30;;;11.90;99.90;;;;;;5011845;28;20532;-76
2021/10/19 12:41:47;;;;;;;10.80;6.83;;;11.90;99.90;;;;;;5011312;28;20497;-75